Springfield, NJ (07081)

8:55 AM EST on November 23, 2014 (GMT -0500)
Kenilworth, N.J. | Change Station
CLOSE
Current Station
Personal Weather Station
Location: Kenilworth, NJ
Elevation: 92 ft
Nearby Weather Stations

Elev 92 ft 40.67 °N, 74.30 °W | Updated 12 minutes ago

Mostly Cloudy
Mostly Cloudy
44.0 °F
Feels Like 42 °F
N
4.0
Wind Variable Wind from West
Gusts 6.0 mph

Today
High -- | Low -- °F
--% Chance of Precip.
Yesterday
High -- | Low -- °F
Precip. -- in
6:53 AM 4:33 PM
New Moon, 1% visible
Pressure 30.24 in
Visibility 10.0 miles
Clouds Mostly Cloudy 12000 ft
Windchill 42 °F
Dew Point 26 °F
Humidity 50%
Rainfall 0.00 in
Snow Depth Not available.
UV 0.7 out of 12
Pollen .10 out of 12
Air Quality Not available.
Flu Activity Not available.
METAR KLDJ 231355Z AUTO 26004KT 10SM BKN120 09/M03 A3024 RMK AO2 T00911029

More Conditions Fewer Conditions

Pressure 30.24 in
Visibility 10.0 miles
Clouds Mostly Cloudy 12000 ft
Windchill 42 °F
Dew Point 26 °F
Humidity 50%
Rainfall 0.00 in
Snow Depth Not available.
UV 0.7 out of 12
Pollen .10 out of 12
Air Quality Not available.
Flu Activity Not available.
METAR KLDJ 231355Z AUTO 26004KT 10SM BKN120 09/M03 A3024 RMK AO2 T00911029

More Conditions Fewer Conditions

10-Day Weather Forecast

Almanac

Astronomy

Nov. 23, 2014 Rise Set
Actual Time
Civil Twilight
Nautical Twilight
Astronomical Twilight
Moon
Length of Visible Light
Length of Day
Tomorrow will be .
, % of the Moon is Illuminated

Today's Extremes

State Highs State Lows

Community

WunderPhotos

Upload Photos

1,773,062 photos uploaded!

WunderBlogs® & News

Nearby

Air Quality

  Air Quality AQ Index Pollutant
Not available.

Snow Depth

Station Depth Elevation

Earthquake Activity

City Distance Mag. Time & Date
Minimum magnitude displayed is 2.5.

Coastal Water Temperatures

Place Temperature

Nearby Weather Stations